Time;durP1;ratioP1;P1;durP2;ratioP2;P2;SDS_P1;SDS_P2;PMS_P1;PMS_P2;Temp;Humidity;BMP_temperature;BMP_pressure;BME280_temperature;BME280_humidity;BME280_pressure;Samples;Min_cycle;Max_cycle;Signal;HPM_P1;HPM_P2
2021/07/17 00:00:59;;;;;;;6.28;5.78;;;25.70;99.90;;;;;;5069717;28;20198;-69
2021/07/17 00:03:26;;;;;;;8.30;6.63;;;25.70;99.90;;;;;;5068236;28;20197;-69
2021/07/17 00:05:53;;;;;;;6.60;6.00;;;25.70;99.90;;;;;;5092204;28;20261;-69
2021/07/17 00:08:20;;;;;;;7.35;6.60;;;25.70;99.90;;;;;;5065856;28;20637;-69
2021/07/17 00:10:49;;;;;;;8.23;7.38;;;25.70;99.90;;;;;;5091054;28;20205;-69
2021/07/17 00:13:17;;;;;;;8.35;7.13;;;25.70;99.90;;;;;;5068905;28;20244;-69
2021/07/17 00:15:46;;;;;;;6.50;5.97;;;25.70;99.90;;;;;;5068600;28;20232;-68
2021/07/17 00:18:15;;;;;;;6.97;6.45;;;26.00;99.90;;;;;;5063807;28;20201;-69
2021/07/17 00:20:42;;;;;;;8.90;8.05;;;25.70;99.90;;;;;;5081728;28;20202;-69
2021/07/17 00:23:09;;;;;;;7.57;6.88;;;25.60;99.90;;;;;;5067605;28;20320;-69
2021/07/17 00:25:36;;;;;;;7.70;7.00;;;25.60;99.90;;;;;;5068372;28;20197;-69
2021/07/17 00:28:03;;;;;;;8.20;7.40;;;25.60;99.90;;;;;;5065288;28;20214;-68
2021/07/17 00:30:30;;;;;;;10.88;7.97;;;25.60;99.90;;;;;;5058757;28;20213;-69
2021/07/17 00:33:01;;;;;;;17.90;11.40;;;25.60;99.90;;;;;;5096935;28;20201;-69
2021/07/17 00:35:28;;;;;;;11.30;9.18;;;25.50;99.90;;;;;;5060896;28;20201;-68
2021/07/17 00:37:55;;;;;;;16.10;10.88;;;25.50;99.90;;;;;;5068573;28;20296;-68
2021/07/17 00:40:22;;;;;;;13.02;10.50;;;25.60;99.90;;;;;;5068896;28;20193;-69
2021/07/17 00:42:50;;;;;;;12.00;10.15;;;25.50;99.90;;;;;;5068775;28;20228;-69
2021/07/17 00:45:18;;;;;;;10.07;9.00;;;25.50;99.90;;;;;;5068177;28;20201;-69
2021/07/17 00:47:45;;;;;;;10.77;8.85;;;25.50;99.90;;;;;;5091231;28;20252;-69
2021/07/17 00:50:15;;;;;;;11.88;9.80;;;25.50;99.90;;;;;;5054136;28;20193;-69
2021/07/17 00:52:43;;;;;;;8.70;7.90;;;25.50;99.90;;;;;;5066164;28;20200;-69
2021/07/17 00:55:11;;;;;;;9.60;8.63;;;25.40;99.90;;;;;;5066742;28;20605;-68
2021/07/17 00:57:40;;;;;;;9.82;8.35;;;25.40;99.90;;;;;;5068912;28;20189;-69
2021/07/17 01:00:08;;;;;;;10.30;7.85;;;25.40;99.90;;;;;;5100528;28;20219;-69
2021/07/17 01:02:38;;;;;;;9.27;8.38;;;25.40;99.90;;;;;;5068484;28;20201;-69
2021/07/17 01:05:08;;;;;;;10.80;8.85;;;25.40;99.90;;;;;;5090105;28;20217;-69
2021/07/17 01:07:37;;;;;;;7.13;6.53;;;25.40;99.90;;;;;;5065056;28;20232;-69
2021/07/17 01:10:07;;;;;;;7.38;6.68;;;25.40;99.90;;;;;;5066433;28;20193;-69
2021/07/17 01:12:34;;;;;;;8.05;7.25;;;25.50;99.90;;;;;;5065526;28;20229;-69
2021/07/17 01:15:02;;;;;;;7.57;6.85;;;25.50;99.90;;;;;;5103486;27;20200;-69
2021/07/17 01:17:29;;;;;;;6.22;5.72;;;25.50;99.90;;;;;;5065452;28;20292;-69
2021/07/17 01:19:56;;;;;;;7.60;6.90;;;25.50;99.90;;;;;;5067465;28;20208;-69
2021/07/17 01:22:25;;;;;;;8.05;7.18;;;25.50;99.90;;;;;;5068912;28;20225;-69
2021/07/17 01:24:52;;;;;;;7.20;6.50;;;25.40;99.90;;;;;;5061420;28;20202;-69
2021/07/17 01:27:20;;;;;;;7.30;6.18;;;25.50;99.90;;;;;;5061999;28;20221;-69
2021/07/17 01:29:47;;;;;;;5.43;5.03;;;25.50;99.90;;;;;;5054434;28;20620;-69
2021/07/17 01:32:17;;;;;;;9.32;7.28;;;25.50;99.90;;;;;;5067957;28;20201;-69
2021/07/17 01:34:44;;;;;;;6.90;6.30;;;25.50;99.90;;;;;;5067043;28;20228;-69
2021/07/17 01:37:11;;;;;;;10.70;9.70;;;25.50;99.90;;;;;;5100132;28;20211;-69
2021/07/17 01:39:40;;;;;;;8.88;8.00;;;25.50;99.90;;;;;;5067532;28;20258;-69
2021/07/17 01:42:08;;;;;;;8.35;7.65;;;25.50;99.90;;;;;;5058938;28;20594;-69
2021/07/17 01:44:41;;;;;;;10.30;8.52;;;25.40;99.90;;;;;;5064537;28;20258;-69
2021/07/17 01:47:09;;;;;;;10.45;9.35;;;25.50;99.90;;;;;;5066998;28;20247;-68
2021/07/17 01:49:36;;;;;;;9.57;8.68;;;25.40;99.90;;;;;;5064860;28;20193;-69
2021/07/17 01:52:03;;;;;;;10.88;9.77;;;25.40;99.90;;;;;;5051654;28;20197;-69
2021/07/17 01:54:33;;;;;;;11.48;9.75;;;25.30;99.90;;;;;;5054167;28;20256;-69
2021/07/17 01:57:03;;;;;;;9.27;8.18;;;25.30;99.90;;;;;;5085664;28;20300;-68
2021/07/17 01:59:29;;;;;;;7.15;6.55;;;25.30;99.90;;;;;;5067888;28;20201;-69
2021/07/17 02:01:56;;;;;;;6.15;5.70;;;25.30;99.90;;;;;;5058834;28;20212;-69
2021/07/17 02:04:23;;;;;;;9.27;8.10;;;25.30;99.90;;;;;;5067453;28;20660;-69
2021/07/17 02:06:50;;;;;;;8.23;7.53;;;25.30;99.90;;;;;;5068102;28;20228;-69
2021/07/17 02:09:17;;;;;;;8.18;7.47;;;25.30;99.90;;;;;;5070080;28;20269;-69
2021/07/17 02:11:44;;;;;;;7.03;6.43;;;25.30;99.90;;;;;;5061938;28;20316;-69
2021/07/17 02:14:12;;;;;;;6.97;6.43;;;25.30;99.90;;;;;;5102609;28;20200;-69
2021/07/17 02:16:40;;;;;;;5.95;5.55;;;25.30;99.90;;;;;;5096883;28;20229;-69
2021/07/17 02:19:18;;;;;;;5.63;5.22;;;25.30;99.90;;;;;;5058096;28;20620;-69
2021/07/17 02:21:47;;;;;;;6.15;5.65;;;25.30;99.90;;;;;;5104184;28;20248;-69
2021/07/17 02:24:13;;;;;;;5.70;5.30;;;25.40;99.90;;;;;;5103583;28;20221;-69
2021/07/17 02:26:40;;;;;;;6.40;5.90;;;25.40;99.90;;;;;;5071547;28;20216;-69
2021/07/17 02:29:07;;;;;;;7.40;6.80;;;25.40;99.90;;;;;;5069694;28;20205;-69
2021/07/17 02:31:36;;;;;;;8.77;7.90;;;25.40;99.90;;;;;;5071357;28;20196;-69
2021/07/17 02:34:03;;;;;;;11.38;9.15;;;25.30;99.90;;;;;;5102441;28;20209;-69
2021/07/17 02:36:31;;;;;;;8.10;7.38;;;25.30;99.90;;;;;;5071343;28;20193;-69
2021/07/17 02:38:58;;;;;;;8.77;7.80;;;25.30;99.90;;;;;;5070151;28;20595;-69
2021/07/17 02:41:25;;;;;;;8.75;7.95;;;25.30;99.90;;;;;;5071836;28;20193;-69
2021/07/17 02:43:52;;;;;;;9.40;8.50;;;25.30;99.90;;;;;;5070778;28;20646;-69
2021/07/17 02:46:19;;;;;;;8.45;7.65;;;25.30;99.90;;;;;;5070982;28;20201;-69
2021/07/17 02:48:47;;;;;;;7.20;6.50;;;25.30;99.90;;;;;;5069559;28;20675;-69
2021/07/17 02:51:14;;;;;;;7.20;6.55;;;25.30;99.90;;;;;;5103536;28;20213;-69
2021/07/17 02:53:41;;;;;;;8.20;7.43;;;25.40;99.90;;;;;;5070371;28;20197;-69
2021/07/17 02:56:08;;;;;;;7.32;6.60;;;25.40;99.90;;;;;;5071245;28;20284;-69
2021/07/17 02:58:35;;;;;;;9.32;8.05;;;25.40;99.90;;;;;;5070065;28;20197;-69
2021/07/17 03:01:02;;;;;;;8.77;7.80;;;25.40;99.90;;;;;;5103286;28;20292;-69
2021/07/17 03:03:29;;;;;;;8.75;6.68;;;25.40;99.90;;;;;;5064081;28;20280;-69
2021/07/17 03:05:58;;;;;;;7.55;6.85;;;25.40;99.90;;;;;;5062010;28;20224;-69
2021/07/17 03:08:25;;;;;;;7.22;6.63;;;25.30;99.90;;;;;;5070142;28;20315;-69
2021/07/17 03:10:52;;;;;;;9.00;7.85;;;25.30;99.90;;;;;;5062394;28;20209;-69
2021/07/17 03:13:19;;;;;;;7.72;7.00;;;25.30;99.90;;;;;;5100476;28;20355;-69
2021/07/17 03:15:49;;;;;;;6.93;6.38;;;25.30;99.90;;;;;;5070828;28;20194;-69
2021/07/17 03:18:16;;;;;;;6.63;6.03;;;25.30;99.90;;;;;;5055724;28;20269;-69
2021/07/17 03:20:43;;;;;;;7.15;6.45;;;25.30;99.90;;;;;;5069324;28;20201;-69
2021/07/17 03:23:12;;;;;;;6.80;6.25;;;25.30;99.90;;;;;;5071117;28;20197;-69
2021/07/17 03:25:39;;;;;;;7.53;6.68;;;25.40;99.90;;;;;;5070700;28;20201;-69
2021/07/17 03:28:06;;;;;;;7.38;6.72;;;25.40;99.90;;;;;;5070242;28;20244;-69
2021/07/17 03:30:33;;;;;;;7.00;6.40;;;25.40;99.90;;;;;;5070270;28;20208;-69
2021/07/17 03:33:00;;;;;;;7.13;6.53;;;25.40;99.90;;;;;;5069814;28;20209;-69
2021/07/17 03:35:27;;;;;;;7.32;6.65;;;25.40;99.90;;;;;;5102389;28;20681;-69
2021/07/17 03:37:54;;;;;;;6.28;5.60;;;25.40;99.90;;;;;;5067728;28;20204;-69
2021/07/17 03:40:23;;;;;;;6.82;6.30;;;25.40;99.90;;;;;;5059995;28;20606;-69
2021/07/17 03:42:50;;;;;;;7.28;6.53;;;25.50;99.90;;;;;;5067285;28;20681;-69
2021/07/17 03:45:17;;;;;;;7.50;6.80;;;25.50;99.90;;;;;;5069636;28;20208;-69
2021/07/17 03:47:44;;;;;;;6.97;6.32;;;25.50;99.90;;;;;;5055761;28;20221;-69
2021/07/17 03:50:11;;;;;;;6.10;5.63;;;25.50;99.90;;;;;;5101299;28;20209;-69
2021/07/17 03:52:38;;;;;;;6.18;5.68;;;25.50;99.90;;;;;;5058890;28;20210;-69
2021/07/17 03:55:06;;;;;;;10.23;7.05;;;25.60;99.90;;;;;;5057249;28;20204;-68
2021/07/17 03:57:35;;;;;;;8.70;7.38;;;25.60;99.90;;;;;;5066156;28;20597;-69
2021/07/17 04:00:02;;;;;;;9.95;7.30;;;25.50;99.90;;;;;;5068838;28;20209;-69
2021/07/17 04:02:39;;;;;;;7.18;6.35;;;25.50;99.90;;;;;;5069386;28;20614;-69
2021/07/17 04:05:07;;;;;;;7.35;6.40;;;25.40;99.90;;;;;;5069086;28;20204;-69
2021/07/17 04:07:34;;;;;;;6.53;6.03;;;25.40;99.90;;;;;;5068488;28;20220;-69
2021/07/17 04:10:02;;;;;;;7.43;5.30;;;25.40;99.90;;;;;;5067211;28;20207;-69
2021/07/17 04:12:29;;;;;;;5.45;5.05;;;25.40;99.90;;;;;;5093075;28;20654;-69
2021/07/17 04:14:57;;;;;;;8.10;5.22;;;25.50;99.90;;;;;;5100004;28;20266;-69
2021/07/17 04:17:24;;;;;;;5.80;5.20;;;25.60;99.90;;;;;;5069315;28;20193;-69
2021/07/17 04:19:51;;;;;;;8.23;5.93;;;25.60;99.90;;;;;;5065006;28;20258;-68
2021/07/17 04:22:19;;;;;;;6.38;5.70;;;25.60;99.90;;;;;;5062010;28;20250;-69
2021/07/17 04:24:45;;;;;;;7.47;5.28;;;25.60;99.90;;;;;;5067325;28;20205;-69
2021/07/17 04:27:13;;;;;;;6.85;5.85;;;25.60;99.90;;;;;;5061112;28;20221;-69
2021/07/17 04:29:40;;;;;;;10.45;5.60;;;25.70;99.90;;;;;;5092993;28;20684;-69
2021/07/17 04:32:08;;;;;;;10.93;5.97;;;25.70;99.90;;;;;;5068973;28;20204;-69
2021/07/17 04:34:36;;;;;;;6.28;4.40;;;25.70;99.90;;;;;;5068639;28;20204;-69
2021/07/17 04:37:03;;;;;;;7.45;4.75;;;25.70;99.90;;;;;;5062091;28;20194;-69
2021/07/17 04:39:30;;;;;;;7.63;4.80;;;25.80;99.90;;;;;;5062631;28;20319;-69
2021/07/17 04:41:57;;;;;;;4.80;4.13;;;25.70;99.90;;;;;;5064136;28;20305;-68
2021/07/17 04:44:24;;;;;;;6.10;4.65;;;25.90;99.90;;;;;;5061312;28;20217;-68
2021/07/17 04:46:51;;;;;;;5.43;4.25;;;25.90;99.90;;;;;;5063817;28;20681;-69
2021/07/17 04:49:19;;;;;;;7.15;4.50;;;26.00;99.90;;;;;;5080060;28;20324;-68
2021/07/17 04:51:46;;;;;;;7.25;4.75;;;26.00;99.90;;;;;;5057088;28;20185;-68
2021/07/17 04:54:13;;;;;;;6.15;4.70;;;26.00;99.90;;;;;;5068442;28;20207;-69
2021/07/17 04:56:40;;;;;;;5.15;4.20;;;26.00;99.90;;;;;;5069100;28;20197;-68
2021/07/17 04:59:07;;;;;;;7.25;4.20;;;26.00;99.90;;;;;;5067244;28;20201;-68
2021/07/17 05:01:34;;;;;;;4.50;4.10;;;26.00;99.90;;;;;;5067703;28;20246;-69
2021/07/17 05:04:00;;;;;;;5.38;3.65;;;26.10;99.90;;;;;;5058890;28;20194;-69
2021/07/17 05:06:29;;;;;;;4.72;3.35;;;26.10;99.90;;;;;;5064880;28;20197;-69
2021/07/17 05:08:56;;;;;;;5.15;3.53;;;26.10;99.90;;;;;;5099922;28;20221;-71
2021/07/17 05:11:23;;;;;;;6.57;3.53;;;26.10;99.90;;;;;;5089990;28;20216;-71
2021/07/17 05:13:50;;;;;;;3.67;3.28;;;26.20;99.90;;;;;;5100547;28;20208;-71
2021/07/17 05:16:17;;;;;;;4.47;3.17;;;26.20;99.90;;;;;;5099140;27;20223;-71
2021/07/17 05:18:44;;;;;;;7.70;3.90;;;26.20;99.90;;;;;;5090404;28;20558;-70
2021/07/17 05:21:11;;;;;;;3.08;2.78;;;26.20;99.90;;;;;;5050271;28;20287;-71
2021/07/17 05:23:39;;;;;;;5.30;3.13;;;26.10;99.90;;;;;;5100697;28;20213;-70
2021/07/17 05:26:06;;;;;;;3.53;3.22;;;26.10;99.90;;;;;;5069216;28;21612;-71
2021/07/17 05:28:33;;;;;;;5.90;3.33;;;26.20;99.90;;;;;;5054988;28;20664;-71
2021/07/17 05:31:00;;;;;;;4.50;3.45;;;26.20;99.90;;;;;;5067986;28;20220;-71
2021/07/17 05:33:27;;;;;;;4.50;2.80;;;26.20;99.90;;;;;;5062734;28;20194;-70
2021/07/17 05:35:54;;;;;;;5.80;3.42;;;26.10;99.90;;;;;;5060130;28;20203;-71
2021/07/17 05:38:21;;;;;;;7.65;3.25;;;26.00;99.90;;;;;;5054796;28;20583;-71
2021/07/17 05:40:49;;;;;;;7.30;3.60;;;26.00;99.90;;;;;;5067095;28;20239;-70
2021/07/17 05:43:16;;;;;;;5.53;3.30;;;26.00;99.90;;;;;;5067803;28;20239;-71
2021/07/17 05:45:43;;;;;;;6.63;3.63;;;25.90;99.90;;;;;;5089784;28;20205;-71
2021/07/17 05:48:10;;;;;;;6.80;3.38;;;25.90;99.90;;;;;;5063501;28;20220;-71
2021/07/17 05:50:37;;;;;;;4.28;3.47;;;25.80;99.90;;;;;;5067064;28;20197;-71
2021/07/17 05:53:08;;;;;;;7.88;3.70;;;25.80;99.90;;;;;;5087778;28;20221;-71
2021/07/17 05:55:35;;;;;;;4.85;3.70;;;25.80;99.90;;;;;;5067842;28;20251;-71
2021/07/17 05:58:04;;;;;;;5.55;3.20;;;25.80;99.90;;;;;;5068179;28;20200;-71
2021/07/17 06:00:31;;;;;;;4.20;3.80;;;25.80;99.90;;;;;;5065774;28;20279;-71
2021/07/17 06:02:58;;;;;;;6.18;4.03;;;25.80;99.90;;;;;;5053914;28;20193;-70
2021/07/17 06:05:25;;;;;;;5.63;4.32;;;25.80;99.90;;;;;;5099582;28;20208;-71
2021/07/17 06:07:52;;;;;;;4.85;3.92;;;25.80;99.90;;;;;;5068248;28;20688;-71
2021/07/17 06:10:19;;;;;;;9.43;5.82;;;25.70;99.90;;;;;;5062910;28;20209;-71
2021/07/17 06:12:46;;;;;;;8.43;4.90;;;25.80;99.90;;;;;;5061783;28;20224;-70
2021/07/17 06:15:15;;;;;;;6.20;4.10;;;25.80;99.90;;;;;;5065928;28;20298;-71
2021/07/17 06:17:41;;;;;;;4.28;3.58;;;26.10;99.90;;;;;;5054833;28;20217;-71
2021/07/17 06:20:09;;;;;;;7.65;4.28;;;26.20;99.90;;;;;;5065135;28;20293;-71
2021/07/17 06:22:36;;;;;;;6.95;4.93;;;26.20;99.90;;;;;;5055203;28;20284;-71
2021/07/17 06:25:04;;;;;;;4.85;3.83;;;26.30;99.90;;;;;;5054944;28;20669;-71
2021/07/17 06:27:31;;;;;;;4.35;3.72;;;26.80;99.90;;;;;;5054792;28;20198;-70
2021/07/17 06:29:58;;;;;;;5.38;3.72;;;27.90;99.90;;;;;;5064965;28;20673;-70
2021/07/17 06:32:27;;;;;;;5.78;3.70;;;28.30;99.90;;;;;;5067350;28;20193;-70
2021/07/17 06:34:54;;;;;;;5.82;3.50;;;28.30;99.90;;;;;;5091565;28;20674;-70
2021/07/17 06:37:21;;;;;;;4.22;3.88;;;28.40;99.90;;;;;;5062285;28;20223;-70
2021/07/17 06:39:47;;;;;;;3.33;3.03;;;28.20;99.90;;;;;;5065824;28;20361;-70
2021/07/17 06:42:14;;;;;;;4.07;3.78;;;28.00;99.90;;;;;;5067659;28;20212;-70
2021/07/17 06:44:41;;;;;;;4.05;3.75;;;28.00;99.90;;;;;;5052974;28;20208;-70
2021/07/17 06:47:09;;;;;;;3.70;3.40;;;28.20;99.90;;;;;;5066707;28;20628;-71
2021/07/17 06:49:37;;;;;;;4.03;3.72;;;28.40;99.90;;;;;;5053056;28;20251;-71
2021/07/17 06:52:04;;;;;;;5.22;3.83;;;28.70;99.90;;;;;;5058495;28;20538;-71
2021/07/17 06:54:31;;;;;;;6.00;4.00;;;28.70;99.90;;;;;;5064881;28;20202;-71
2021/07/17 06:56:58;;;;;;;4.13;3.63;;;28.60;99.90;;;;;;5059662;28;20217;-71
2021/07/17 06:59:25;;;;;;;3.45;3.25;;;28.60;99.90;;;;;;5060238;28;20658;-70
2021/07/17 07:01:52;;;;;;;4.00;3.60;;;28.90;99.90;;;;;;5058978;28;20190;-71
2021/07/17 07:04:19;;;;;;;4.13;3.83;;;28.80;99.90;;;;;;5058810;28;20205;-71
2021/07/17 07:06:48;;;;;;;5.53;3.83;;;28.80;99.90;;;;;;5060681;28;20205;-71
2021/07/17 07:09:15;;;;;;;5.80;3.75;;;28.70;99.90;;;;;;5083029;28;20248;-71
2021/07/17 07:11:41;;;;;;;4.47;3.95;;;28.80;99.90;;;;;;5063149;28;20593;-71
2021/07/17 07:14:08;;;;;;;9.40;3.97;;;28.70;99.90;;;;;;5062829;28;20258;-71
2021/07/17 07:16:35;;;;;;;4.32;3.95;;;28.70;99.90;;;;;;5063539;28;20190;-71
2021/07/17 07:19:02;;;;;;;5.78;4.15;;;28.80;99.90;;;;;;5061132;28;20813;-71
2021/07/17 07:21:29;;;;;;;4.97;4.22;;;28.80;99.90;;;;;;5070374;28;20205;-71
2021/07/17 07:23:58;;;;;;;4.78;3.88;;;28.70;99.90;;;;;;5070334;28;20204;-71
2021/07/17 07:26:25;;;;;;;4.15;3.80;;;28.50;99.90;;;;;;5070884;28;20405;-71
2021/07/17 07:28:56;;;;;;;4.32;4.03;;;28.30;99.90;;;;;;5050584;28;20209;-71
2021/07/17 07:31:23;;;;;;;4.30;3.97;;;28.20;99.90;;;;;;5061960;28;20604;-71
2021/07/17 07:33:50;;;;;;;4.20;3.90;;;28.00;99.90;;;;;;5063154;28;20256;-71
2021/07/17 07:36:18;;;;;;;4.00;3.70;;;28.00;99.90;;;;;;5083404;28;20259;-71
2021/07/17 07:38:45;;;;;;;4.30;3.95;;;27.90;99.90;;;;;;5069520;28;20192;-70
2021/07/17 07:41:13;;;;;;;5.13;4.00;;;27.90;99.90;;;;;;5070507;28;20197;-71
2021/07/17 07:43:42;;;;;;;6.15;4.82;;;28.00;99.90;;;;;;5068836;28;20680;-71
2021/07/17 07:46:09;;;;;;;4.50;4.10;;;28.00;99.90;;;;;;5087488;28;20294;-70
2021/07/17 07:48:36;;;;;;;5.38;4.85;;;27.90;99.90;;;;;;5081240;28;20680;-70
2021/07/17 07:51:02;;;;;;;5.10;4.63;;;27.80;99.90;;;;;;5061502;28;20213;-70
2021/07/17 07:53:29;;;;;;;5.20;4.78;;;27.80;99.90;;;;;;5100658;28;20221;-71
2021/07/17 07:55:56;;;;;;;4.38;4.07;;;27.70;99.90;;;;;;5068558;28;20593;-72
2021/07/17 07:58:25;;;;;;;6.63;4.80;;;27.60;99.90;;;;;;5069585;28;20221;-71
2021/07/17 08:00:52;;;;;;;4.50;4.10;;;27.50;99.90;;;;;;5058154;28;20196;-73
2021/07/17 08:03:19;;;;;;;5.25;4.40;;;27.50;99.90;;;;;;5053214;28;20205;-72
2021/07/17 08:05:46;;;;;;;5.97;4.82;;;27.40;99.90;;;;;;5066306;28;20650;-72
2021/07/17 08:08:12;;;;;;;5.80;4.80;;;27.40;99.90;;;;;;5064108;28;20370;-72
2021/07/17 08:10:40;;;;;;;7.80;5.70;;;27.40;99.90;;;;;;5062633;28;20202;-72
2021/07/17 08:13:07;;;;;;;6.07;4.53;;;27.40;99.90;;;;;;5069159;28;20247;-72
2021/07/17 08:15:35;;;;;;;6.90;5.15;;;27.40;99.90;;;;;;5067072;28;20502;-72
2021/07/17 08:18:02;;;;;;;8.05;5.53;;;27.30;99.90;;;;;;5060011;28;20194;-72
2021/07/17 08:20:29;;;;;;;6.03;4.35;;;27.20;99.90;;;;;;5050635;28;20205;-72
2021/07/17 08:22:58;;;;;;;6.65;5.22;;;27.20;99.90;;;;;;5068458;28;20818;-72
2021/07/17 08:25:24;;;;;;;7.72;5.43;;;27.20;99.90;;;;;;5093405;28;20746;-72
2021/07/17 08:27:51;;;;;;;5.05;4.60;;;27.20;99.90;;;;;;5048356;28;20190;-72
2021/07/17 08:30:19;;;;;;;7.88;5.13;;;27.20;99.90;;;;;;5051710;28;20213;-72
2021/07/17 08:32:47;;;;;;;5.70;5.20;;;27.10;99.90;;;;;;5058076;28;20215;-70
2021/07/17 08:35:14;;;;;;;5.15;4.65;;;27.10;99.90;;;;;;5063149;28;20276;-70
2021/07/17 08:37:41;;;;;;;7.47;5.05;;;27.10;99.90;;;;;;5063206;28;20181;-71
2021/07/17 08:40:09;;;;;;;5.32;4.70;;;27.00;99.90;;;;;;5060410;28;20208;-71
2021/07/17 08:42:41;;;;;;;6.95;5.22;;;27.00;99.90;;;;;;5062599;28;20193;-71
2021/07/17 08:45:09;;;;;;;5.60;4.93;;;27.00;99.90;;;;;;5058118;28;20210;-71
2021/07/17 08:47:39;;;;;;;7.55;5.10;;;27.00;99.90;;;;;;5061498;28;20304;-71
2021/07/17 08:50:10;;;;;;;4.63;4.22;;;27.00;99.90;;;;;;5057400;28;20662;-71
2021/07/17 08:52:38;;;;;;;6.00;5.03;;;27.00;99.90;;;;;;5063983;28;20742;-70
2021/07/17 08:55:08;;;;;;;6.18;5.53;;;27.10;99.90;;;;;;5059971;28;20208;-71
2021/07/17 08:57:36;;;;;;;5.25;4.35;;;27.20;99.90;;;;;;5062301;28;20653;-71
2021/07/17 09:00:07;;;;;;;5.50;4.97;;;27.20;99.90;;;;;;5058539;28;20227;-71
2021/07/17 09:02:37;;;;;;;6.95;5.95;;;27.30;99.90;;;;;;5058445;28;20217;-71
2021/07/17 09:05:08;;;;;;;7.22;5.25;;;27.30;99.90;;;;;;5056698;28;20283;-71
2021/07/17 09:07:36;;;;;;;5.28;4.72;;;27.30;99.90;;;;;;5085207;28;20278;-71
2021/07/17 09:10:27;;;;;;;7.75;6.07;;;27.40;99.90;;;;;;5054739;28;20213;-75
2021/07/17 09:13:07;;;;;;;5.55;5.07;;;27.30;99.90;;;;;;5060984;28;20228;-73
2021/07/17 09:15:34;;;;;;;7.65;5.70;;;27.30;99.90;;;;;;5048753;28;20197;-70
2021/07/17 09:18:01;;;;;;;7.20;5.70;;;27.30;99.90;;;;;;5059251;28;20217;-70
2021/07/17 09:20:29;;;;;;;4.82;4.53;;;27.40;99.90;;;;;;5061837;28;20224;-71
2021/07/17 09:22:59;;;;;;;5.30;4.70;;;27.60;99.90;;;;;;5066547;28;20193;-71
2021/07/17 09:25:35;;;;;;;5.70;5.18;;;28.10;99.90;;;;;;5060216;28;20206;-72
2021/07/17 09:28:18;;;;;;;7.78;5.45;;;28.60;99.90;;;;;;5062387;28;20742;-71
2021/07/17 09:30:46;;;;;;;11.35;5.05;;;28.90;99.90;;;;;;5054211;28;20274;-69
2021/07/17 09:33:14;;;;;;;7.65;4.80;;;29.20;99.90;;;;;;5058461;28;20568;-70
2021/07/17 09:35:44;;;;;;;7.28;4.72;;;29.20;99.90;;;;;;5060389;28;20210;-71
2021/07/17 09:38:12;;;;;;;6.95;4.60;;;29.20;99.90;;;;;;5057799;28;20205;-71
2021/07/17 09:40:51;;;;;;;6.00;4.57;;;29.20;99.90;;;;;;5062887;28;20200;-72
2021/07/17 09:43:30;;;;;;;8.55;5.32;;;29.10;99.90;;;;;;5064021;28;20718;-71
2021/07/17 09:45:58;;;;;;;4.72;4.07;;;28.90;99.90;;;;;;5095893;28;20205;-71
2021/07/17 09:48:27;;;;;;;5.35;4.80;;;28.90;99.90;;;;;;5065139;28;20201;-73
2021/07/17 09:50:57;;;;;;;6.18;5.10;;;29.00;99.90;;;;;;5063204;28;20208;-73
2021/07/17 09:53:45;;;;;;;6.18;5.47;;;29.10;99.90;;;;;;5060360;28;20576;-73
2021/07/17 09:56:13;;;;;;;5.10;4.60;;;29.00;99.90;;;;;;5096722;28;20534;-72
2021/07/17 09:58:41;;;;;;;5.18;4.65;;;29.20;99.90;;;;;;5065258;28;20272;-73
2021/07/17 10:01:23;;;;;;;6.35;4.50;;;29.40;99.90;;;;;;5065053;28;20201;-74
2021/07/17 10:03:52;;;;;;;5.93;4.75;;;29.40;99.90;;;;;;5064130;28;20201;-76
2021/07/17 10:06:30;;;;;;;5.30;4.80;;;29.30;99.90;;;;;;5063796;28;20227;-74
2021/07/17 10:08:58;;;;;;;4.93;4.43;;;29.30;99.90;;;;;;5056647;28;20331;-75
2021/07/17 10:11:26;;;;;;;8.07;4.68;;;29.30;99.90;;;;;;5059170;28;20284;-77
2021/07/17 10:13:54;;;;;;;8.23;4.53;;;29.50;99.90;;;;;;5064794;28;20201;-75
2021/07/17 10:16:23;;;;;;;5.13;4.72;;;29.70;99.90;;;;;;5059226;28;20224;-75
2021/07/17 10:18:51;;;;;;;5.72;5.10;;;29.80;99.90;;;;;;5063434;28;20220;-75
2021/07/17 10:21:19;;;;;;;5.50;4.72;;;30.00;99.90;;;;;;5064300;28;20212;-75
2021/07/17 10:23:47;;;;;;;5.85;4.57;;;30.10;99.90;;;;;;5087382;28;20201;-75
2021/07/17 10:26:15;;;;;;;5.32;4.70;;;30.20;99.90;;;;;;5090803;28;20197;-76
2021/07/17 10:28:42;;;;;;;5.63;4.18;;;30.30;99.90;;;;;;5091299;28;20650;-75
2021/07/17 10:31:09;;;;;;;5.90;4.57;;;30.30;99.90;;;;;;5058118;28;20415;-74
2021/07/17 10:33:37;;;;;;;6.20;4.63;;;30.30;99.90;;;;;;5062930;28;20200;-74
2021/07/17 10:36:09;;;;;;;6.22;4.50;;;30.40;99.90;;;;;;5064456;28;20527;-74
2021/07/17 10:38:42;;;;;;;6.55;4.60;;;30.60;99.90;;;;;;5063548;28;20201;-75
2021/07/17 10:41:20;;;;;;;6.05;5.03;;;30.70;99.90;;;;;;5057853;28;20672;-75
2021/07/17 10:43:51;;;;;;;10.50;5.28;;;30.70;99.90;;;;;;5062165;28;20731;-75
2021/07/17 10:46:30;;;;;;;6.60;5.22;;;30.80;99.90;;;;;;5061049;28;20213;-74
2021/07/17 10:48:58;;;;;;;7.60;4.90;;;30.80;99.90;;;;;;5063079;28;20220;-74
2021/07/17 10:51:32;;;;;;;5.80;4.85;;;30.70;99.90;;;;;;5068450;28;20197;-75
2021/07/17 10:54:01;;;;;;;8.20;4.97;;;30.70;99.90;;;;;;5093473;28;20211;-73
2021/07/17 10:56:47;;;;;;;7.40;5.00;;;30.70;99.90;;;;;;5063891;28;20748;-73
2021/07/17 10:59:42;;;;;;;4.95;4.30;;;30.60;99.90;;;;;;5055551;28;20197;-74
2021/07/17 11:02:10;;;;;;;9.02;4.68;;;30.60;99.90;;;;;;5067510;28;20283;-75
2021/07/17 11:04:46;;;;;;;9.13;4.88;;;30.60;99.90;;;;;;5088653;28;20193;-74
2021/07/17 11:07:42;;;;;;;6.78;4.82;;;30.70;99.90;;;;;;5065359;28;20539;-75
2021/07/17 11:10:17;;;;;;;5.30;4.80;;;30.80;99.90;;;;;;5091786;27;20214;-73
2021/07/17 11:12:59;;;;;;;8.02;5.25;;;30.90;99.90;;;;;;5065678;28;20297;-74
2021/07/17 11:15:49;;;;;;;7.72;4.85;;;31.10;99.90;;;;;;5063220;28;20653;-73
2021/07/17 11:18:19;;;;;;;5.85;5.25;;;31.20;99.90;;;;;;5059289;28;20198;-71
2021/07/17 11:20:46;;;;;;;8.63;4.95;;;31.10;99.90;;;;;;5062692;28;20316;-74
2021/07/17 11:23:16;;;;;;;5.20;4.70;;;31.00;99.90;;;;;;5054265;28;20201;-74
2021/07/17 11:25:54;;;;;;;6.00;4.60;;;30.90;99.90;;;;;;5060769;28;20213;-74
2021/07/17 11:29:05;;;;;;;9.05;5.82;;;30.80;99.90;;;;;;5081959;28;20238;-74
2021/07/17 11:31:54;;;;;;;6.35;4.80;;;30.90;99.90;;;;;;5069404;28;20641;-75
2021/07/17 11:34:46;;;;;;;5.20;4.70;;;30.90;99.90;;;;;;5079809;28;20582;-75
2021/07/17 11:37:16;;;;;;;6.22;5.50;;;31.10;99.90;;;;;;5082041;28;20218;-74
2021/07/17 11:39:44;;;;;;;6.65;5.28;;;31.10;99.90;;;;;;5060115;28;20212;-74
2021/07/17 11:42:14;;;;;;;6.18;5.57;;;31.10;99.90;;;;;;5067487;28;20263;-74
2021/07/17 11:44:44;;;;;;;6.03;5.38;;;31.20;99.90;;;;;;5069259;28;20278;-74
2021/07/17 11:47:13;;;;;;;7.13;5.70;;;31.20;99.90;;;;;;5065908;28;20201;-74
2021/07/17 11:49:44;;;;;;;6.95;5.57;;;31.20;99.90;;;;;;5060513;28;20214;-74
2021/07/17 11:52:13;;;;;;;6.68;5.82;;;31.40;99.90;;;;;;5055298;28;20213;-74
2021/07/17 11:54:42;;;;;;;9.18;6.13;;;31.70;99.90;;;;;;5052030;28;20194;-74
2021/07/17 11:57:12;;;;;;;7.93;6.30;;;32.00;99.90;;;;;;5055332;28;20201;-74
2021/07/17 11:59:40;;;;;;;7.63;5.30;;;32.20;99.90;;;;;;5049040;28;20206;-74
2021/07/17 12:02:10;;;;;;;18.55;5.43;;;32.40;99.90;;;;;;5051098;28;20194;-75
2021/07/17 12:04:39;;;;;;;5.95;5.18;;;32.40;99.90;;;;;;5049660;28;20201;-74
2021/07/17 12:07:09;;;;;;;6.45;4.80;;;32.30;99.90;;;;;;5082683;28;20574;-74
2021/07/17 12:09:39;;;;;;;6.43;4.68;;;31.90;99.90;;;;;;5049329;28;20275;-74
2021/07/17 12:12:18;;;;;;;7.32;5.57;;;31.70;99.90;;;;;;5055567;28;20237;-75
2021/07/17 12:14:46;;;;;;;5.65;5.15;;;31.40;99.90;;;;;;5068008;28;20197;-75
2021/07/17 12:17:21;;;;;;;8.63;5.25;;;31.30;99.90;;;;;;5068662;28;20216;-75
2021/07/17 12:20:04;;;;;;;6.53;5.20;;;31.30;99.90;;;;;;5086026;28;20252;-74
2021/07/17 12:22:31;;;;;;;8.13;5.63;;;31.30;99.90;;;;;;5052747;28;20503;-75
2021/07/17 12:25:05;;;;;;;10.18;5.25;;;31.30;99.90;;;;;;5058708;28;20205;-75
2021/07/17 12:27:32;;;;;;;6.85;5.93;;;31.10;99.90;;;;;;5066988;28;20280;-75
2021/07/17 12:29:59;;;;;;;8.18;6.15;;;31.10;99.90;;;;;;5089049;28;20216;-75
2021/07/17 12:32:27;;;;;;;6.47;5.47;;;31.00;99.90;;;;;;5062104;28;20596;-75
2021/07/17 12:34:55;;;;;;;8.30;5.85;;;30.90;99.90;;;;;;5065453;28;20193;-75
2021/07/17 12:37:29;;;;;;;6.75;6.05;;;30.80;99.90;;;;;;5063181;28;20599;-75
2021/07/17 12:40:08;;;;;;;13.23;6.38;;;30.70;99.90;;;;;;5065838;28;20284;-77
2021/07/17 12:42:43;;;;;;;9.95;6.95;;;30.60;99.90;;;;;;5066695;28;20203;-77
2021/07/17 12:45:16;;;;;;;11.43;7.28;;;30.30;99.90;;;;;;5061765;28;20200;-76
2021/07/17 12:47:52;;;;;;;12.35;6.85;;;30.10;99.90;;;;;;5090378;28;20206;-77
2021/07/17 12:50:21;;;;;;;8.85;6.70;;;29.90;99.90;;;;;;5086646;28;20274;-76
2021/07/17 12:52:48;;;;;;;8.40;6.18;;;29.80;99.90;;;;;;5088220;28;20201;-78
2021/07/17 12:55:15;;;;;;;8.13;5.45;;;29.70;99.90;;;;;;5063964;28;20193;-77